Terminal Aerodrome Forecast
Issued by NWS Newport/Morehead City, NC

Home | Current Version | Previous Version | Graphics & Text | Print | Product List | Glossary On
Versions: 1 2 3 4 5 6 7 8 9 10 11 12 13 14 15 16 17 18 19 20 21 22 23 24 25 26 27 28
000
FTUS42 KMHX 302158 AAA
TAFEWN
TAF AMD
KEWN 302158Z 3022/0118 09007KT P6SM SCT020 OVC040
     FM010600 VRB04KT P6SM BKN007
     FM011200 15004KT P6SM BKN015
     FM011400 20010KT P6SM SCT040 BKN120=

USA.gov is the U.S. government's official web portal to all federal, state and local government web resources and services.